createdAt,value
2022-12-26T00:02:02.097Z,4.65
2022-12-26T00:04:52.182Z,4.85
2022-12-26T00:07:23.798Z,4.20
2022-12-26T00:09:53.000Z,4.28
2022-12-26T00:12:21.678Z,4.55
2022-12-26T00:14:51.808Z,3.92
2022-12-26T00:17:22.117Z,4.28
2022-12-26T00:19:53.699Z,3.40
2022-12-26T00:22:22.690Z,3.90
2022-12-26T00:24:51.599Z,3.78
2022-12-26T00:27:23.719Z,3.30
2022-12-26T00:29:53.529Z,3.70
2022-12-26T00:32:24.276Z,3.17
2022-12-26T00:34:55.232Z,3.63
2022-12-26T00:37:24.092Z,3.28
2022-12-26T00:39:54.368Z,3.10
2022-12-26T00:42:24.254Z,3.15
2022-12-26T00:44:53.946Z,2.88
2022-12-26T00:47:22.982Z,3.58
2022-12-26T00:50:13.482Z,3.35
2022-12-26T00:52:43.126Z,2.92
2022-12-26T00:55:12.221Z,3.20
2022-12-26T00:57:42.361Z,2.92
2022-12-26T01:00:13.256Z,2.90
2022-12-26T01:02:43.051Z,3.15
2022-12-26T01:05:13.748Z,3.13
2022-12-26T01:08:20.348Z,3.30
2022-12-26T01:10:35.143Z,3.42
2022-12-26T01:13:04.725Z,3.08
2022-12-26T01:15:33.790Z,3.40
2022-12-26T01:18:04.106Z,3.72
2022-12-26T01:20:35.356Z,4.30
2022-12-26T01:23:06.679Z,4.63
2022-12-26T01:25:35.581Z,3.63
2022-12-26T01:28:05.472Z,3.42
2022-12-26T01:30:35.987Z,3.33
2022-12-26T01:33:05.758Z,3.50
2022-12-26T01:35:35.436Z,3.25
2022-12-26T01:38:06.645Z,3.47
2022-12-26T01:40:36.052Z,3.33
2022-12-26T01:43:04.574Z,3.20
2022-12-26T01:45:34.481Z,3.63
2022-12-26T01:48:07.361Z,3.80
2022-12-26T01:50:43.593Z,3.40
2022-12-26T01:53:17.175Z,3.05
2022-12-26T01:55:52.261Z,3.50
2022-12-26T01:58:26.874Z,3.20
2022-12-26T02:03:51.311Z,2.78
2022-12-26T02:06:20.262Z,2.83
2022-12-26T02:08:52.560Z,2.55
2022-12-26T02:11:27.366Z,2.70
2022-12-26T02:13:58.149Z,3.78
2022-12-26T02:16:27.942Z,3.08
2022-12-26T02:18:57.064Z,3.28
2022-12-26T02:21:57.585Z,3.60
2022-12-26T02:24:53.513Z,3.22
2022-12-26T02:27:48.713Z,3.45
2022-12-26T02:33:21.078Z,2.78
2022-12-26T02:36:15.249Z,3.08
2022-12-26T02:38:55.781Z,3.53
2022-12-26T02:41:31.135Z,3.90
2022-12-26T02:44:28.411Z,3.63
2022-12-26T02:47:11.014Z,3.83
2022-12-26T02:50:22.720Z,3.63
2022-12-26T02:53:22.355Z,3.72
2022-12-26T02:56:14.482Z,3.40
2022-12-26T02:59:18.239Z,3.22
2022-12-26T03:02:09.000Z,3.60
2022-12-26T03:05:08.193Z,3.78
2022-12-26T03:08:00.723Z,3.58
2022-12-26T03:10:52.233Z,3.55
2022-12-26T03:13:28.251Z,3.47
2022-12-26T03:16:19.805Z,4.35
2022-12-26T03:18:58.097Z,3.42
2022-12-26T03:21:36.023Z,3.38
2022-12-26T03:24:06.704Z,4.22
2022-12-26T03:26:41.100Z,4.00
2022-12-26T03:29:30.304Z,3.70
2022-12-26T03:32:07.890Z,2.92
2022-12-26T03:34:43.217Z,3.28
2022-12-26T03:37:48.380Z,3.03
2022-12-26T03:40:55.299Z,3.10
2022-12-26T03:43:58.888Z,2.90
2022-12-26T03:47:00.145Z,2.88
2022-12-26T03:49:49.686Z,2.72
2022-12-26T03:52:47.134Z,2.70
2022-12-26T03:55:42.488Z,2.83
2022-12-26T03:58:39.648Z,3.10
2022-12-26T04:01:33.600Z,2.70
2022-12-26T04:04:26.428Z,3.22
2022-12-26T04:07:32.769Z,2.78
2022-12-26T04:10:27.130Z,2.97
2022-12-26T04:13:17.338Z,2.78
2022-12-26T04:16:08.346Z,2.50
2022-12-26T04:19:01.739Z,2.15
2022-12-26T04:21:55.761Z,2.35
2022-12-26T04:24:48.874Z,2.20
2022-12-26T04:27:40.243Z,2.17
2022-12-26T04:30:29.246Z,2.30
2022-12-26T04:33:25.843Z,2.30
2022-12-26T04:36:18.211Z,2.00
2022-12-26T04:39:12.836Z,1.63
2022-12-26T04:42:01.599Z,2.10
2022-12-26T04:44:31.702Z,1.80
2022-12-26T04:47:02.292Z,1.80
2022-12-26T04:49:49.333Z,1.80
2022-12-26T04:52:21.617Z,1.95
2022-12-26T04:54:52.473Z,2.20
2022-12-26T04:57:22.759Z,1.90
2022-12-26T04:59:52.126Z,1.70
2022-12-26T05:02:39.371Z,2.17
2022-12-26T05:05:28.122Z,1.90
2022-12-26T05:08:14.769Z,1.92
2022-12-26T05:10:45.153Z,1.77
2022-12-26T05:13:14.968Z,1.80
2022-12-26T05:15:59.473Z,2.00
2022-12-26T05:18:51.707Z,2.40
2022-12-26T05:21:38.963Z,2.38
2022-12-26T05:24:29.153Z,2.30
2022-12-26T05:27:23.287Z,2.40
2022-12-26T05:29:52.458Z,1.85
2022-12-26T05:32:38.882Z,2.25
2022-12-26T05:35:11.724Z,2.05
2022-12-26T05:37:41.780Z,2.60
2022-12-26T05:40:11.674Z,2.10
2022-12-26T05:42:40.609Z,2.42
2022-12-26T05:45:10.833Z,2.13
2022-12-26T05:47:40.718Z,2.08
2022-12-26T05:50:19.151Z,2.40
2022-12-26T05:52:58.890Z,2.80
2022-12-26T05:55:29.408Z,3.22
2022-12-26T05:58:02.326Z,2.72
2022-12-26T06:00:32.431Z,2.92
2022-12-26T06:03:02.318Z,2.72
2022-12-26T06:05:33.618Z,2.90
2022-12-26T06:08:03.744Z,2.95
2022-12-26T06:10:32.904Z,3.05
2022-12-26T06:13:05.375Z,2.70
2022-12-26T06:15:34.803Z,2.80
2022-12-26T06:18:04.579Z,2.90
2022-12-26T06:20:35.915Z,3.03
2022-12-26T06:23:09.281Z,2.90
2022-12-26T06:25:39.345Z,3.58
2022-12-26T06:28:09.774Z,3.22
2022-12-26T06:30:38.912Z,3.50
2022-12-26T06:33:14.932Z,3.08
2022-12-26T06:35:52.203Z,3.35
2022-12-26T06:40:53.382Z,2.88
2022-12-26T06:43:23.482Z,2.85
2022-12-26T06:45:59.298Z,3.45
2022-12-26T06:48:29.322Z,3.15
2022-12-26T06:51:08.790Z,3.63
2022-12-26T06:53:42.075Z,2.90
2022-12-26T06:56:14.388Z,2.67
2022-12-26T06:58:45.460Z,2.60
2022-12-26T07:01:19.589Z,2.90
2022-12-26T07:03:59.508Z,2.70
2022-12-26T07:06:39.031Z,2.53
2022-12-26T07:09:14.623Z,2.70
2022-12-26T07:11:46.515Z,2.47
2022-12-26T07:14:19.634Z,2.75
2022-12-26T07:16:49.149Z,2.70
2022-12-26T07:19:18.508Z,2.83
2022-12-26T07:21:54.663Z,3.20
2022-12-26T07:24:27.061Z,3.15
2022-12-26T07:26:58.842Z,3.13
2022-12-26T07:29:28.965Z,3.20
2022-12-26T07:32:04.753Z,2.67
2022-12-26T07:34:38.735Z,3.10
2022-12-26T07:37:10.626Z,2.70
2022-12-26T07:39:40.968Z,2.83
2022-12-26T07:42:11.265Z,2.75
2022-12-26T07:44:43.276Z,2.50
2022-12-26T07:47:12.085Z,2.25
2022-12-26T07:49:41.601Z,2.53
2022-12-26T07:52:12.501Z,2.30
2022-12-26T07:54:41.687Z,2.17
2022-12-26T07:57:46.847Z,2.20
2022-12-26T08:00:10.972Z,2.17
2022-12-26T08:02:43.701Z,1.98
2022-12-26T08:05:24.502Z,2.17
2022-12-26T08:08:01.055Z,2.10
2022-12-26T08:10:32.871Z,2.05
2022-12-26T08:13:02.103Z,2.10
2022-12-26T08:15:31.577Z,1.88
2022-12-26T08:18:01.589Z,1.85
2022-12-26T08:20:31.307Z,1.80
2022-12-26T08:23:02.434Z,1.52
2022-12-26T08:28:04.388Z,1.98
2022-12-26T08:30:33.446Z,1.65
2022-12-26T08:33:02.992Z,1.70
2022-12-26T08:35:35.402Z,1.30
2022-12-26T08:38:09.311Z,1.40
2022-12-26T08:40:43.960Z,1.40
2022-12-26T08:43:39.155Z,1.35
2022-12-26T08:46:08.369Z,1.70
2022-12-26T08:48:40.498Z,1.93
2022-12-26T08:51:15.329Z,1.90
2022-12-26T08:53:49.747Z,1.55
2022-12-26T08:56:21.845Z,1.60
2022-12-26T08:58:52.014Z,1.60
2022-12-26T09:01:23.577Z,1.50
2022-12-26T09:03:54.278Z,1.48
2022-12-26T09:06:23.289Z,1.40
2022-12-26T09:08:54.468Z,1.30
2022-12-26T09:11:26.856Z,1.70
2022-12-26T09:14:01.666Z,1.45
2022-12-26T09:16:37.739Z,1.30
2022-12-26T09:19:08.003Z,1.50
2022-12-26T09:21:37.543Z,1.30
2022-12-26T09:24:13.109Z,1.50
2022-12-26T09:26:43.431Z,1.27
2022-12-26T09:29:13.150Z,1.50
2022-12-26T09:31:41.593Z,1.17
2022-12-26T09:34:13.973Z,1.38
2022-12-26T09:36:42.923Z,1.50
2022-12-26T09:39:14.151Z,1.30
2022-12-26T09:42:03.099Z,1.40
2022-12-26T09:44:47.392Z,2.05
2022-12-26T09:47:31.595Z,1.50
2022-12-26T09:50:05.421Z,1.67
2022-12-26T09:52:42.121Z,1.60
2022-12-26T09:55:27.229Z,1.70
2022-12-26T09:58:01.649Z,1.50
2022-12-26T10:00:39.508Z,1.50
2022-12-26T10:03:11.811Z,1.52
2022-12-26T10:05:48.855Z,1.65
2022-12-26T10:08:28.721Z,1.77
2022-12-26T10:11:03.203Z,1.38
2022-12-26T10:13:37.997Z,1.60
2022-12-26T10:16:11.726Z,1.48
2022-12-26T10:18:55.100Z,1.37
2022-12-26T10:21:35.053Z,1.38
2022-12-26T10:24:09.861Z,1.30
2022-12-26T10:26:42.483Z,1.17
2022-12-26T10:29:23.120Z,1.30
2022-12-26T10:31:56.097Z,1.35
2022-12-26T10:34:27.538Z,1.20
2022-12-26T10:37:03.509Z,1.20
2022-12-26T10:39:46.706Z,1.20
2022-12-26T10:42:26.376Z,1.35
2022-12-26T10:44:55.144Z,1.13
2022-12-26T10:47:28.104Z,1.40
2022-12-26T10:49:59.975Z,1.30
2022-12-26T10:52:33.524Z,1.20
2022-12-26T10:55:28.118Z,1.20
2022-12-26T10:57:55.805Z,1.30
2022-12-26T11:00:27.366Z,1.17
2022-12-26T11:03:08.082Z,1.30
2022-12-26T11:06:06.377Z,1.10
2022-12-26T11:08:40.815Z,1.30
2022-12-26T11:11:15.940Z,1.30
2022-12-26T11:14:00.829Z,1.40
2022-12-26T11:16:33.727Z,1.30
2022-12-26T11:19:04.154Z,1.23
2022-12-26T11:21:34.824Z,1.30
2022-12-26T11:24:19.763Z,1.27
2022-12-26T11:29:19.835Z,1.30
2022-12-26T11:31:55.119Z,1.45
2022-12-26T11:34:32.465Z,1.30
2022-12-26T11:37:02.472Z,1.10
2022-12-26T11:39:34.822Z,1.23
2022-12-26T11:42:11.554Z,1.20
2022-12-26T11:44:46.374Z,1.33
2022-12-26T11:47:18.002Z,1.35
2022-12-26T11:49:53.748Z,1.08
2022-12-26T12:01:23.311Z,1.70
2022-12-26T12:04:48.154Z,1.25
2022-12-26T12:11:55.480Z,1.58
2022-12-26T12:14:34.478Z,1.60
2022-12-26T12:17:23.184Z,1.50
2022-12-26T12:20:07.441Z,1.45
2022-12-26T12:23:08.141Z,1.40
2022-12-26T12:25:51.127Z,1.25
2022-12-26T12:28:48.136Z,2.08
2022-12-26T12:31:26.313Z,1.30
2022-12-26T12:34:05.293Z,1.45
2022-12-26T12:36:40.868Z,1.48
2022-12-26T12:39:17.563Z,1.48
2022-12-26T12:42:02.706Z,1.30
2022-12-26T12:44:54.050Z,1.30
2022-12-26T12:47:32.370Z,1.15
2022-12-26T12:50:14.786Z,1.40
2022-12-26T12:52:53.758Z,1.20
2022-12-26T12:55:37.882Z,1.17
2022-12-26T12:58:14.080Z,1.25
2022-12-26T13:00:46.295Z,1.33
2022-12-26T13:03:31.774Z,1.55
2022-12-26T13:06:07.714Z,1.50
2022-12-26T13:11:14.228Z,1.58
2022-12-26T13:13:51.751Z,1.50
2022-12-26T13:16:26.690Z,1.95
2022-12-26T13:19:00.934Z,2.03
2022-12-26T13:21:35.860Z,1.60
2022-12-26T13:24:25.453Z,2.03
2022-12-26T13:27:01.257Z,1.40
2022-12-26T13:29:40.184Z,1.58
2022-12-26T13:32:19.418Z,1.55
2022-12-26T13:34:49.802Z,1.88
2022-12-26T13:37:58.987Z,1.80
2022-12-26T13:40:31.816Z,1.70
2022-12-26T13:43:21.831Z,2.22
2022-12-26T13:45:55.170Z,1.98
2022-12-26T13:48:58.685Z,1.92
2022-12-26T13:51:58.368Z,4.05
2022-12-26T13:54:30.055Z,2.30
2022-12-26T13:57:35.284Z,1.90
2022-12-26T14:00:19.919Z,1.80
2022-12-26T14:03:25.257Z,1.80
2022-12-26T14:06:14.327Z,1.75
2022-12-26T14:08:55.576Z,1.80
2022-12-26T14:11:43.922Z,2.00
2022-12-26T14:14:22.792Z,1.60
2022-12-26T14:17:05.199Z,1.52
2022-12-26T14:19:46.417Z,1.75
2022-12-26T14:22:23.685Z,1.48
2022-12-26T14:25:04.121Z,2.28
2022-12-26T14:27:45.709Z,2.17
2022-12-26T14:30:28.735Z,1.75
2022-12-26T14:33:16.035Z,1.70
2022-12-26T14:35:54.757Z,2.15
2022-12-26T14:38:34.490Z,1.75
2022-12-26T14:41:07.077Z,1.73
2022-12-26T14:43:41.265Z,1.50
2022-12-26T14:46:49.623Z,2.40
2022-12-26T14:49:22.862Z,2.67
2022-12-26T14:51:51.919Z,3.92
2022-12-26T14:54:43.051Z,2.85
2022-12-26T14:57:43.846Z,2.92
2022-12-26T15:00:32.686Z,3.97
2022-12-26T15:03:41.726Z,3.60
2022-12-26T15:06:49.376Z,4.88
2022-12-26T15:09:51.240Z,3.60
2022-12-26T15:12:56.812Z,3.30
2022-12-26T15:15:47.665Z,3.00
2022-12-26T15:18:47.083Z,2.80
2022-12-26T15:21:49.170Z,2.92
2022-12-26T15:28:32.119Z,4.72
2022-12-26T15:31:39.372Z,3.42
2022-12-26T15:34:42.504Z,3.70
2022-12-26T15:37:30.662Z,3.53
2022-12-26T15:40:12.682Z,3.00
2022-12-26T15:42:53.765Z,3.08
2022-12-26T15:45:33.273Z,3.13
2022-12-26T15:48:12.375Z,2.70
2022-12-26T15:50:55.076Z,2.40
2022-12-26T15:53:33.004Z,2.85
2022-12-26T15:56:43.798Z,2.53
2022-12-26T15:59:49.200Z,2.55
2022-12-26T16:02:34.501Z,2.10
2022-12-26T16:05:23.911Z,2.15
2022-12-26T16:08:02.018Z,2.20
2022-12-26T16:10:32.655Z,2.33
2022-12-26T16:13:08.127Z,1.80
2022-12-26T16:15:47.476Z,2.10
2022-12-26T16:18:18.509Z,2.10
2022-12-26T16:21:09.606Z,2.22
2022-12-26T16:23:41.234Z,2.20
2022-12-26T16:26:19.056Z,2.58
2022-12-26T16:28:48.631Z,2.30
2022-12-26T16:31:21.844Z,2.55
2022-12-26T16:33:53.218Z,2.15
2022-12-26T16:36:26.502Z,1.85
2022-12-26T16:38:56.322Z,1.90
2022-12-26T16:41:27.108Z,1.77
2022-12-26T16:43:58.261Z,2.00
2022-12-26T16:46:31.187Z,2.00
2022-12-26T16:49:02.231Z,2.10
2022-12-26T16:51:41.872Z,1.88
2022-12-26T16:54:25.615Z,1.90
2022-12-26T16:57:02.355Z,1.90
2022-12-26T16:59:46.185Z,2.25
2022-12-26T17:02:20.858Z,1.98
2022-12-26T17:04:58.675Z,1.83
2022-12-26T17:07:29.660Z,2.00
2022-12-26T17:10:01.859Z,2.10
2022-12-26T17:12:39.467Z,2.00
2022-12-26T17:15:10.781Z,1.80
2022-12-26T17:17:44.986Z,1.92
2022-12-26T17:20:36.679Z,1.60
2022-12-26T17:23:36.533Z,1.70
2022-12-26T17:26:21.629Z,1.60
2022-12-26T17:31:29.237Z,1.60
2022-12-26T17:34:00.113Z,1.80
2022-12-26T17:37:08.722Z,1.90
2022-12-26T17:39:27.136Z,1.60
2022-12-26T17:41:58.186Z,1.70
2022-12-26T17:44:48.697Z,1.80
2022-12-26T17:47:23.195Z,1.60
2022-12-26T17:49:55.682Z,2.30
2022-12-26T17:52:28.710Z,2.22
2022-12-26T17:55:00.742Z,2.00
2022-12-26T17:57:31.241Z,1.63
2022-12-26T18:00:00.797Z,1.80
2022-12-26T18:02:29.885Z,1.60
2022-12-26T18:04:59.161Z,1.60
2022-12-26T18:07:31.340Z,1.60
2022-12-26T18:10:02.859Z,1.70
2022-12-26T18:12:31.565Z,1.40
2022-12-26T18:15:02.356Z,1.50
2022-12-26T18:17:35.054Z,1.77
2022-12-26T18:20:04.769Z,1.50
2022-12-26T18:22:33.749Z,1.30
2022-12-26T18:25:04.212Z,1.50
2022-12-26T18:27:34.994Z,1.42
2022-12-26T18:30:04.296Z,1.70
2022-12-26T18:32:35.564Z,1.70
2022-12-26T18:35:04.824Z,1.35
2022-12-26T18:37:34.166Z,1.60
2022-12-26T18:40:05.817Z,1.35
2022-12-26T18:42:35.152Z,1.60
2022-12-26T18:45:04.471Z,1.30
2022-12-26T18:47:33.329Z,1.35
2022-12-26T18:50:02.742Z,1.20
2022-12-26T18:52:31.641Z,1.20
2022-12-26T18:55:00.199Z,1.20
2022-12-26T18:57:30.204Z,1.30
2022-12-26T18:59:59.433Z,1.50
2022-12-26T19:02:28.216Z,1.55
2022-12-26T19:04:56.858Z,1.50
2022-12-26T19:07:25.726Z,1.38
2022-12-26T19:09:55.821Z,1.30
2022-12-26T19:12:25.316Z,1.67
2022-12-26T19:14:55.440Z,1.70
2022-12-26T19:17:24.128Z,1.88
2022-12-26T19:19:53.109Z,1.80
2022-12-26T19:22:21.759Z,1.55
2022-12-26T19:24:50.644Z,1.60
2022-12-26T19:27:19.618Z,2.15
2022-12-26T19:29:48.384Z,1.77
2022-12-26T19:32:18.647Z,1.55
2022-12-26T19:34:47.442Z,1.50
2022-12-26T19:37:16.104Z,1.50
2022-12-26T19:39:44.953Z,1.40
2022-12-26T19:42:13.593Z,1.50
2022-12-26T19:44:42.297Z,1.50
2022-12-26T19:47:13.002Z,1.23
2022-12-26T19:49:44.159Z,1.40
2022-12-26T19:52:13.112Z,1.45
2022-12-26T19:54:42.484Z,1.60
2022-12-26T19:57:11.771Z,1.60
2022-12-26T19:59:40.989Z,1.40
2022-12-26T20:02:13.453Z,1.60
2022-12-26T20:04:44.234Z,1.33
2022-12-26T20:07:13.241Z,1.30
2022-12-26T20:09:42.195Z,1.50
2022-12-26T20:12:11.027Z,1.60
2022-12-26T20:14:39.862Z,1.60
2022-12-26T20:17:09.564Z,1.60
2022-12-26T20:19:39.321Z,1.70
2022-12-26T20:22:09.591Z,1.50
2022-12-26T20:24:38.325Z,1.67
2022-12-26T20:27:07.391Z,1.55
2022-12-26T20:29:36.277Z,1.85
2022-12-26T20:32:05.464Z,1.67
2022-12-26T20:34:34.701Z,1.70
2022-12-26T20:37:04.054Z,2.40
2022-12-26T20:39:34.255Z,1.77
2022-12-26T20:42:03.177Z,1.83
2022-12-26T20:44:34.920Z,1.88
2022-12-26T20:47:03.629Z,1.75
2022-12-26T20:49:33.653Z,2.10
2022-12-26T20:52:03.041Z,2.08
2022-12-26T20:54:36.567Z,2.17
2022-12-26T20:57:05.949Z,1.80
2022-12-26T20:59:35.431Z,1.92
2022-12-26T21:02:04.851Z,2.08
2022-12-26T21:04:34.647Z,2.03
2022-12-26T21:07:04.050Z,2.03
2022-12-26T21:09:34.569Z,2.00
2022-12-26T21:12:03.972Z,2.17
2022-12-26T21:14:33.686Z,2.35
2022-12-26T21:17:03.436Z,2.10
2022-12-26T21:19:33.258Z,2.72
2022-12-26T21:22:01.995Z,2.70
2022-12-26T21:24:33.075Z,2.35
2022-12-26T21:27:04.340Z,1.85
2022-12-26T21:29:35.613Z,2.15
2022-12-26T21:32:05.883Z,2.20
2022-12-26T21:34:35.279Z,2.33
2022-12-26T21:37:21.572Z,1.95
2022-12-26T21:39:50.730Z,1.98
2022-12-26T21:42:20.753Z,1.90
2022-12-26T21:44:49.682Z,1.98
2022-12-26T21:47:18.688Z,1.75
2022-12-26T21:49:48.382Z,1.58
2022-12-26T21:52:17.368Z,1.70
2022-12-26T21:55:03.361Z,2.00
2022-12-26T21:57:35.346Z,1.60
2022-12-26T22:00:05.696Z,1.90
2022-12-26T22:02:54.855Z,1.83
2022-12-26T22:05:27.090Z,1.65
2022-12-26T22:07:57.551Z,1.75
2022-12-26T22:10:46.383Z,1.70
2022-12-26T22:13:16.645Z,1.70
2022-12-26T22:16:05.233Z,1.52
2022-12-26T22:18:37.303Z,1.70
2022-12-26T22:21:08.972Z,1.80
2022-12-26T22:23:38.542Z,2.70
2022-12-26T22:26:10.440Z,1.90
2022-12-26T22:28:40.822Z,1.90
2022-12-26T22:31:10.031Z,1.92
2022-12-26T22:33:38.707Z,1.60
2022-12-26T22:36:09.125Z,1.60
2022-12-26T22:38:38.901Z,1.77
2022-12-26T22:41:08.997Z,1.63
2022-12-26T22:43:38.927Z,2.20
2022-12-26T22:46:09.968Z,1.67
2022-12-26T22:48:38.934Z,2.50
2022-12-26T22:51:07.834Z,1.90
2022-12-26T22:53:36.336Z,1.90
2022-12-26T22:56:07.372Z,2.03
2022-12-26T22:58:37.390Z,2.20
2022-12-26T23:01:14.806Z,1.88
2022-12-26T23:03:44.587Z,1.85
2022-12-26T23:06:22.026Z,2.10
2022-12-26T23:08:53.218Z,2.00
2022-12-26T23:11:25.251Z,1.83
2022-12-26T23:13:56.516Z,1.98
2022-12-26T23:16:33.215Z,1.73
2022-12-26T23:19:23.957Z,1.83
2022-12-26T23:21:53.923Z,2.08
2022-12-26T23:24:25.300Z,2.00
2022-12-26T23:26:57.027Z,2.10
2022-12-26T23:29:49.040Z,1.95
2022-12-26T23:32:19.704Z,2.10
2022-12-26T23:34:48.929Z,2.00
2022-12-26T23:37:17.750Z,2.10
2022-12-26T23:39:46.263Z,2.45
2022-12-26T23:42:15.200Z,2.00
2022-12-26T23:44:44.118Z,1.90
2022-12-26T23:47:12.997Z,2.40
2022-12-26T23:49:43.884Z,1.90
2022-12-26T23:52:12.772Z,2.00
2022-12-26T23:54:42.343Z,2.10
2022-12-26T23:57:11.467Z,2.00
2022-12-26T23:59:40.038Z,2.25
